Terminal Aerodrome Forecast
Issued by NWS Cleveland, OH

Home | Current Version | Previous Version | Graphics & Text | Print | Product List | Glossary On
Versions: 1 2 3 4 5 6 7 8 9 10 11 12 13 14 15 16 17 18 19 20 21 22 23
000
FTUS41 KCLE 240300 AAB
TAFTOL
TAF AMD
KTOL 240318Z 2403/2424 VRB03KT 1SM -RA BR OVC004
     FM240900 06005KT 2SM BR OVC002
     FM241800 14010KT 3SM BR OVC004
     FM242000 18015G25KT P6SM -SHRA OVC008
     FM242200 25025G40KT P6SM OVC012=

USA.gov is the U.S. government's official web portal to all federal, state and local government web resources and services.